Axtell, Utah
Current Conditions -  °F | °C
As of 5:35 PM on Tuesday 25 Nov 2014 (Local Time) from KDTA Reporting Station
Scattered Clouds Scattered Clouds  
Wind Chill: 41°   Ceiling: Unl
Heat Index: 41°   Visibility: 10mi
Dew Point: 22°   Wind: 3mph
Humidity: 46%   Direction: 300°WNW
Pressure: 30.34"   Gusts: NA
Location:  39.06°N, 111.82°W
Report Text: KDTA 260035Z AUTO 30003KT 10SM SCT070 05/M06 A3034 RMK AO1 T00501057
Loading
Personal Weather Stations






























Interactive Weather Map New forecast layout! Learn more

10-Day Weather Forecast

Advertisements
Track Severe Weather on mobile